• Join FlightAware (Why Join?)
  • Login
  • US Flag 
 
09:42PM EST


 

Airport Tracker/Info


-or-


 

Live Flight TrackerFlight Track Log ✈ DAL3688 ✈ 21-Apr-2013 ✈ KMDT - KDTW

Flight Track Log - Related Links

Times and Time Zones

All times are in EDT time to prevent confusion due to time zone crossing. See the DAL3688 flight status page for this flight to view local times or setup timezone preferences in your user account.

Time Position Orientation Groundspeed Altitude Reporting Facility
EDT Latitude Longitude Course Direction KTS MPH feet Rate Location/Type
12:46PM 40.2969 -77.0574 294° West  Level FlightAware Approximate
12:46PM 40.2572 -76.9669 292° West 254 292 4,000  Level New York Center
12:47PM 40.2616 -77.1628 242° Southwest  Level FlightAware Approximate
12:47PM 40.2639 -77.0411 277° West 269 310 5,400  Level New York Center
12:48PM 40.2191 -77.2676 241° Southwest  Level FlightAware Approximate
12:48PM 40.2333 -77.1417 248° West 267 307 8,300  Level New York Center
12:49PM 40.1758 -77.3716 241° Southwest  Level FlightAware Approximate
12:49PM 40.2078 -77.2264 248° West 277 319 10,700  Level New York Center
12:50PM 40.1783 -77.3486 253° West 311 358 12,200 1,620 Climbing New York Center
12:51PM 40.1697 -77.4619 264° West 342 394 14,000 1,980 Climbing New York Center
12:52PM 40.1578 -77.5992 264° West 347 399 16,200 1,440 Climbing New York Center
12:55PM 40.1306 -77.9572 264° West 373 429 19,600 1,140 Climbing Cleveland Center
12:56PM 40.1461 -78.0897 279° West 373 429 20,600 960 Climbing Cleveland Center
12:57PM 40.1742 -78.2300 285° West 381 438 21,600 960 Climbing Cleveland Center
12:58PM 40.2019 -78.3675 285° West 391 450 22,600 960 Climbing Cleveland Center
12:59PM 40.2339 -78.5053 287° West 396 456 23,600 900 Climbing Cleveland Center
01:00PM 40.2614 -78.6458 284° West 396 456 24,400 600 Climbing Cleveland Center
01:01PM 40.2908 -78.7894 285° West 396 456 24,900 480 Climbing Cleveland Center
01:02PM 40.3222 -78.9356 286° West 402 463 25,400 480 Climbing Cleveland Center
01:03PM 40.3511 -79.0819 285° West 413 475 25,900 300 Climbing Cleveland Center
01:04PM 40.3803 -79.2311 284° West 413 475 26,000  Climbing Cleveland Center
01:05PM 40.4131 -79.3778 286° West 413 475 26,000  Level Cleveland Center
01:06PM 40.4417 -79.5300 284° West 418 481 26,000  Level Cleveland Center
01:07PM 40.4722 -79.6742 286° West 418 481 26,000  Level Cleveland Center
01:08PM 40.5003 -79.8242 284° West 418 481 26,000  Level Cleveland Center
01:09PM 40.5283 -79.9767 284° West 418 481 26,000  Level Cleveland Center
01:10PM 40.5561 -80.1267 284° West 423 487 26,000  Level Cleveland Center
01:11PM 40.5836 -80.2797 283° West 423 487 26,000  Level Cleveland Center
01:12PM 40.6175 -80.4436 285° West 428 493 26,000  Level Cleveland Center
01:13PM 40.6447 -80.5831 284° West 433 498 26,000  Level Cleveland Center
01:14PM 40.6800 -80.7419 286° West 433 498 26,000  Level Cleveland Center
01:15PM 40.7442 -80.8792 302° West 428 493 26,000 -300 Level Cleveland Center
01:16PM 40.8106 -81.0139 303° West 433 498 25,400 -780 Descending Cleveland Center
01:17PM 40.8664 -81.1378 301° West 443 510 24,500 -720 Descending Cleveland Center
01:18PM 40.9303 -81.2675 303° West 438 504 24,000 -300 Descending Cleveland Center
01:19PM 41.0000 -81.4111 303° West 433 498 24,000  Level Cleveland Center
01:20PM 41.0617 -81.5414 302° West 423 487 24,000  Level Cleveland Center
01:21PM 41.1231 -81.6719 302° West 423 487 24,000  Level Cleveland Center
01:22PM 41.1906 -81.7972 306° West 423 487 24,000  Level Cleveland Center
01:23PM 41.2517 -81.9308 301° West 423 487 24,000  Level Cleveland Center
01:24PM 41.3147 -82.0622 303° West 424 488 24,000 -300 Level Cleveland Center
01:25PM 41.3692 -82.1794 302° West 430 495 23,400 -1,500 Descending Cleveland Center
01:26PM 41.4425 -82.3033 308° West 430 495 21,100 -2,400 Descending Cleveland Center
01:27PM 41.5136 -82.4244 308° West 420 483 18,700 -2,160 Descending Cleveland Center
01:28PM 41.5847 -82.5431 309° West 397 457 16,800 -2,220 Descending Cleveland Center
01:29PM 41.6494 -82.6506 309° West 378 435 14,300 -2,220 Descending Cleveland Center
01:30PM 41.7203 -82.7725 308° West 366 421 12,100 -1,200 Descending Cleveland Center
01:31PM 41.7811 -82.8497 317° Northwest 368 423 12,000 -120 Descending Cleveland Center
01:31PM 41.8036 -82.8700 326° Northwest 361 415 12,000  Level Cleveland Center
01:32PM 41.8567 -82.9389 316° Northwest 363 418 12,000  Level Cleveland Center
01:32PM 41.8808 -82.9678 318° Northwest 362 417 12,000  Level Cleveland Center
01:33PM 41.9317 -83.0311 317° Northwest 363 418 12,000  Level Cleveland Center
01:33PM 41.9583 -83.0600 321° Northwest 366 421 12,000 -120 Level Cleveland Center
01:34PM 42.0089 -83.1206 318° Northwest 363 418 11,900 -540 Descending Cleveland Center
01:34PM 42.0375 -83.1553 318° Northwest 357 411 11,400 -900 Descending Cleveland Center
01:35PM 42.0758 -83.2044 316° Northwest 351 404 11,000 -360 Descending Cleveland Center
01:35PM 42.1128 -83.2311 332° Northwest 259 298 11,000 -120 Level Cleveland Center
01:36PM 42.1397 -83.2350 354° North 275 316 10,900 -960 Descending Cleveland Center
01:37PM 42.1986 -83.2122 16° North 239 275 9,600 -1,680 Descending Cleveland Center
01:37PM 42.2283 -83.1939 25° Northeast 238 274 8,700 -2,280 Descending Cleveland Center
01:38PM 42.2917 -83.1544 25° Northeast 241 277 6,300 -1,860 Descending Cleveland Center
01:39PM 42.3569 -83.1289 16° North 227 261 4,800 -1,260 Descending Cleveland Center
01:40PM 42.3533 -83.2019 266° West 210 242 3,800 -1,020 Descending Cleveland Center